createdAt,value
2022-08-27T00:03:04.015Z,19.80
2022-08-27T00:08:06.532Z,18.87
2022-08-27T00:13:08.439Z,17.55
2022-08-27T00:18:09.835Z,20.33
2022-08-27T00:23:10.895Z,17.70
2022-08-27T00:28:12.350Z,19.80
2022-08-27T00:33:13.483Z,15.60
2022-08-27T00:38:14.857Z,17.73
2022-08-27T00:43:25.206Z,21.23
2022-08-27T00:48:29.692Z,22.67
2022-08-27T00:53:32.804Z,21.15
2022-08-27T00:58:46.005Z,20.77
2022-08-27T01:03:50.578Z,20.58
2022-08-27T01:08:56.468Z,18.45
2022-08-27T01:13:59.610Z,20.27
2022-08-27T01:19:06.885Z,20.42
2022-08-27T01:24:44.864Z,22.15
2022-08-27T01:29:47.139Z,20.20
2022-08-27T01:34:48.968Z,23.38
2022-08-27T01:39:50.265Z,20.90
2022-08-27T01:44:57.812Z,19.75
2022-08-27T01:50:00.206Z,19.85
2022-08-27T01:55:01.697Z,21.05
2022-08-27T02:00:08.825Z,21.27
2022-08-27T02:05:13.303Z,22.30
2022-08-27T02:10:22.994Z,21.98
2022-08-27T02:15:25.360Z,23.60
2022-08-27T02:20:29.316Z,25.90
2022-08-27T02:25:31.000Z,25.62
2022-08-27T02:30:33.624Z,22.77
2022-08-27T02:35:43.146Z,24.13
2022-08-27T02:40:44.075Z,23.62
2022-08-27T02:45:45.317Z,22.77
2022-08-27T02:50:46.354Z,26.05
2022-08-27T02:55:47.300Z,25.77
2022-08-27T03:00:48.173Z,27.25
2022-08-27T03:05:49.469Z,28.33
2022-08-27T03:10:51.101Z,28.42
2022-08-27T03:15:52.846Z,28.42
2022-08-27T03:20:55.597Z,30.50
2022-08-27T03:25:59.159Z,25.80
2022-08-27T03:31:03.342Z,28.38
2022-08-27T03:36:06.881Z,26.10
2022-08-27T03:41:07.674Z,30.55
2022-08-27T03:46:08.776Z,29.87
2022-08-27T03:51:12.679Z,31.70
2022-08-27T03:56:14.263Z,29.52
2022-08-27T04:01:16.389Z,27.65
2022-08-27T04:06:17.457Z,28.25
2022-08-27T04:11:18.402Z,28.33
2022-08-27T04:16:19.288Z,30.65
2022-08-27T04:21:22.356Z,29.87
2022-08-27T04:26:23.246Z,28.52
2022-08-27T04:31:25.434Z,30.83
2022-08-27T04:36:26.740Z,29.05
2022-08-27T04:41:28.601Z,30.37
2022-08-27T04:46:32.618Z,29.50
2022-08-27T04:51:34.264Z,29.00
2022-08-27T04:56:37.392Z,32.38
2022-08-27T05:01:42.291Z,32.65
2022-08-27T05:06:45.315Z,32.55
2022-08-27T05:11:47.159Z,34.40
2022-08-27T05:16:48.155Z,37.27
2022-08-27T05:21:51.032Z,36.08
2022-08-27T05:31:54.639Z,40.22
2022-08-27T05:36:55.688Z,40.63
2022-08-27T05:41:57.327Z,40.45
2022-08-27T05:46:58.257Z,38.45
2022-08-27T05:51:59.314Z,38.08
2022-08-27T05:57:00.190Z,37.03
2022-08-27T06:02:02.063Z,35.90
2022-08-27T06:07:03.699Z,34.75
2022-08-27T06:12:06.101Z,34.03
2022-08-27T06:17:07.033Z,32.85
2022-08-27T06:22:10.395Z,31.80
2022-08-27T06:27:15.457Z,30.27
2022-08-27T06:32:16.300Z,30.05
2022-08-27T06:37:17.400Z,29.75
2022-08-27T06:42:18.233Z,28.85
2022-08-27T06:47:22.053Z,28.25
2022-08-27T06:52:22.913Z,27.92
2022-08-27T06:57:23.995Z,28.17
2022-08-27T07:02:25.310Z,28.00
2022-08-27T07:07:27.237Z,25.52
2022-08-27T07:12:35.492Z,23.45
2022-08-27T07:17:36.415Z,24.30
2022-08-27T07:22:40.036Z,23.70
2022-08-27T07:27:41.099Z,20.95
2022-08-27T07:32:45.297Z,21.25
2022-08-27T07:37:46.225Z,21.65
2022-08-27T07:43:05.767Z,19.60
2022-08-27T07:48:06.676Z,20.45
2022-08-27T07:53:07.860Z,18.17
2022-08-27T07:58:11.540Z,19.45
2022-08-27T08:03:13.404Z,16.92
2022-08-27T08:08:15.106Z,17.00
2022-08-27T08:13:17.820Z,17.12
2022-08-27T08:18:18.846Z,15.20
2022-08-27T08:23:21.107Z,16.23
2022-08-27T08:28:21.907Z,15.32
2022-08-27T08:33:23.615Z,15.65
2022-08-27T08:38:25.373Z,12.45
2022-08-27T08:43:36.790Z,15.02
2022-08-27T08:48:43.047Z,14.48
2022-08-27T08:53:52.283Z,14.98
2022-08-27T08:59:02.694Z,13.27
2022-08-27T09:04:06.517Z,14.95
2022-08-27T09:09:53.816Z,15.65
2022-08-27T09:15:05.034Z,14.65
2022-08-27T09:20:07.853Z,15.75
2022-08-27T09:25:31.066Z,15.70
2022-08-27T09:30:42.434Z,14.73
2022-08-27T09:35:45.812Z,14.15
2022-08-27T09:40:51.184Z,13.52
2022-08-27T09:45:55.777Z,11.55
2022-08-27T09:51:01.790Z,12.93
2022-08-27T09:56:09.212Z,10.20
2022-08-27T10:01:22.253Z,10.27
2022-08-27T10:06:28.534Z,9.82
2022-08-27T10:11:35.299Z,11.20
2022-08-27T10:17:04.780Z,8.93
2022-08-27T10:22:33.301Z,7.85
2022-08-27T10:29:20.278Z,7.28
2022-08-27T10:34:49.672Z,8.85
2022-08-27T10:40:22.738Z,10.05
2022-08-27T10:45:46.534Z,10.30
2022-08-27T10:52:09.384Z,10.07
2022-08-27T10:57:58.879Z,10.17
2022-08-27T11:03:08.375Z,9.85
2022-08-27T11:08:40.476Z,7.65
2022-08-27T11:13:50.798Z,8.27
2022-08-27T11:18:57.525Z,8.32
2022-08-27T11:24:08.199Z,9.40
2022-08-27T11:29:26.367Z,8.38
2022-08-27T11:34:45.776Z,9.85
2022-08-27T11:41:44.615Z,10.45
2022-08-27T11:46:49.414Z,10.70
2022-08-27T11:52:03.713Z,12.85
2022-08-27T11:57:14.704Z,17.10
2022-08-27T12:02:26.249Z,20.42
2022-08-27T12:07:32.613Z,19.27
2022-08-27T12:15:16.671Z,17.80
2022-08-27T12:20:41.330Z,18.62
2022-08-27T12:25:42.564Z,15.88
2022-08-27T12:30:53.389Z,18.55
2022-08-27T12:35:57.231Z,20.85
2022-08-27T12:41:03.209Z,20.75
2022-08-27T12:46:13.144Z,20.05
2022-08-27T12:51:26.238Z,21.08
2022-08-27T12:58:15.687Z,17.95
2022-08-27T13:03:34.730Z,18.52
2022-08-27T13:08:35.663Z,18.58
2022-08-27T13:13:36.714Z,17.67
2022-08-27T13:18:39.096Z,17.77
2022-08-27T13:23:46.672Z,16.98
2022-08-27T13:28:48.942Z,17.98
2022-08-27T13:33:50.217Z,16.80
2022-08-27T13:38:51.604Z,17.87
2022-08-27T13:43:57.075Z,14.93
2022-08-27T13:49:00.342Z,14.75
2022-08-27T13:54:15.354Z,14.75
2022-08-27T13:59:26.525Z,14.27
2022-08-27T14:05:02.462Z,14.13
2022-08-27T14:10:45.521Z,12.07
2022-08-27T14:15:58.644Z,13.70
2022-08-27T14:21:01.594Z,12.35
2022-08-27T14:26:02.557Z,15.82
2022-08-27T14:31:03.803Z,15.40
2022-08-27T14:36:05.635Z,15.82
2022-08-27T14:41:06.874Z,12.43
2022-08-27T14:46:18.425Z,11.68
2022-08-27T14:51:25.683Z,11.60
2022-08-27T14:56:26.595Z,13.23
2022-08-27T15:01:28.722Z,12.85
2022-08-27T15:06:29.618Z,13.25
2022-08-27T15:11:33.544Z,12.98
2022-08-27T15:16:38.403Z,12.23
2022-08-27T15:21:40.576Z,14.05
2022-08-27T15:26:41.443Z,12.82
2022-08-27T15:31:42.757Z,11.45
2022-08-27T15:36:43.792Z,10.55
2022-08-27T15:42:05.925Z,11.82
2022-08-27T15:52:11.795Z,11.07
2022-08-27T15:57:19.699Z,9.90
2022-08-27T16:02:23.307Z,8.82
2022-08-27T16:07:24.156Z,8.63
2022-08-27T16:12:27.402Z,8.40
2022-08-27T16:17:28.720Z,7.68
2022-08-27T16:22:29.742Z,6.82
2022-08-27T16:27:30.645Z,5.95
2022-08-27T16:32:32.108Z,7.00
2022-08-27T16:37:32.943Z,7.47
2022-08-27T16:42:34.833Z,6.37
2022-08-27T16:50:32.635Z,8.00
2022-08-27T16:55:34.165Z,8.23
2022-08-27T17:00:38.150Z,8.05
2022-08-27T17:05:39.090Z,8.27
2022-08-27T17:10:45.812Z,9.00
2022-08-27T17:15:52.883Z,8.52
2022-08-27T17:20:56.269Z,10.02
2022-08-27T17:25:57.114Z,8.65
2022-08-27T17:31:01.007Z,9.45
2022-08-27T17:36:04.567Z,10.73
2022-08-27T17:41:34.080Z,10.60
2022-08-27T17:46:36.078Z,11.30
2022-08-27T17:51:36.981Z,10.20
2022-08-27T17:56:39.346Z,10.73
2022-08-27T18:01:40.600Z,9.77
2022-08-27T18:06:41.835Z,8.60
2022-08-27T18:11:44.584Z,9.35
2022-08-27T18:21:47.169Z,9.52
2022-08-27T18:26:48.724Z,9.88
2022-08-27T18:31:49.754Z,9.38
2022-08-27T18:36:50.658Z,9.52
2022-08-27T18:41:53.439Z,10.05
2022-08-27T18:46:54.288Z,10.20
2022-08-27T18:51:55.442Z,10.35
2022-08-27T18:56:56.266Z,11.30
2022-08-27T19:01:57.385Z,10.93
2022-08-27T19:06:58.552Z,13.15
2022-08-27T19:11:59.753Z,12.27
2022-08-27T19:17:01.993Z,12.48
2022-08-27T19:22:05.847Z,13.57
2022-08-27T19:27:08.649Z,14.57
2022-08-27T19:32:10.372Z,15.07
2022-08-27T19:37:21.319Z,15.25
2022-08-27T19:42:22.461Z,14.98
2022-08-27T19:47:25.253Z,14.43
2022-08-27T19:52:26.147Z,16.45
2022-08-27T19:57:27.087Z,16.52
2022-08-27T20:02:27.949Z,16.45
2022-08-27T20:07:28.971Z,17.00
2022-08-27T20:12:29.975Z,16.95
2022-08-27T20:17:32.291Z,16.40
2022-08-27T20:22:33.570Z,18.33
2022-08-27T20:27:34.938Z,19.00
2022-08-27T20:32:35.956Z,18.42
2022-08-27T20:37:41.920Z,19.15
2022-08-27T20:42:43.799Z,17.12
2022-08-27T20:47:47.095Z,17.62
2022-08-27T20:52:48.996Z,18.10
2022-08-27T20:58:08.852Z,18.37
2022-08-27T21:03:11.985Z,18.27
2022-08-27T21:08:14.554Z,17.80
2022-08-27T21:13:16.605Z,16.35
2022-08-27T21:18:18.834Z,17.23
2022-08-27T21:23:21.484Z,16.17
2022-08-27T21:28:22.682Z,15.95
2022-08-27T21:33:23.592Z,15.05
2022-08-27T21:38:24.586Z,16.95
2022-08-27T21:43:25.438Z,12.55
2022-08-27T21:48:26.551Z,12.57
2022-08-27T21:53:29.320Z,13.15
2022-08-27T21:58:30.191Z,14.48
2022-08-27T22:03:33.173Z,14.00
2022-08-27T22:08:34.238Z,14.77
2022-08-27T22:13:35.964Z,12.25
2022-08-27T22:18:36.861Z,12.15
2022-08-27T22:23:39.856Z,11.40
2022-08-27T22:28:46.467Z,12.30
2022-08-27T22:33:47.386Z,11.50
2022-08-27T22:38:48.374Z,10.85
2022-08-27T22:43:51.094Z,11.43
2022-08-27T22:48:57.681Z,10.18
2022-08-27T22:53:58.527Z,8.77
2022-08-27T22:58:59.811Z,10.55
2022-08-27T23:04:01.218Z,11.48
2022-08-27T23:09:02.583Z,10.10
2022-08-27T23:14:03.529Z,9.80
2022-08-27T23:19:04.393Z,8.27
2022-08-27T23:24:05.457Z,9.48
2022-08-27T23:29:06.942Z,10.57
2022-08-27T23:34:07.777Z,8.40
2022-08-27T23:39:09.974Z,8.10
2022-08-27T23:44:11.228Z,9.83
2022-08-27T23:49:12.506Z,9.10
2022-08-27T23:54:13.341Z,10.23
2022-08-27T23:59:14.201Z,9.98
